createdAt,value
2023-01-05T05:00:29.822Z,1008.77
2023-01-05T05:01:29.941Z,1008.74
2023-01-05T05:02:29.985Z,1008.78
2023-01-05T05:03:33.171Z,1008.81
2023-01-05T05:04:29.717Z,1008.80
2023-01-05T05:05:29.703Z,1008.81
2023-01-05T05:06:29.713Z,1008.86
2023-01-05T05:07:29.703Z,1008.85
2023-01-05T05:08:29.681Z,1008.91
2023-01-05T05:09:29.658Z,1008.95
2023-01-05T05:10:29.656Z,1008.90
2023-01-05T05:11:34.672Z,1008.94
2023-01-05T05:12:29.629Z,1008.99
2023-01-05T05:13:29.616Z,1009.01
2023-01-05T05:14:29.608Z,1009.03
2023-01-05T05:15:29.601Z,1009.03
2023-01-05T05:16:29.695Z,1009.07
2023-01-05T05:17:29.567Z,1009.09
2023-01-05T05:18:29.559Z,1009.02
2023-01-05T05:19:29.544Z,1009.01
2023-01-05T05:20:29.560Z,1009.08
2023-01-05T05:21:29.565Z,1009.10
2023-01-05T05:22:34.542Z,1009.13
2023-01-05T05:23:29.503Z,1009.15
2023-01-05T05:24:29.492Z,1009.16
2023-01-05T05:25:29.486Z,1009.17
2023-01-05T05:26:29.625Z,1009.11
2023-01-05T05:27:29.475Z,1009.20
2023-01-05T05:28:29.464Z,1009.23
2023-01-05T05:29:29.433Z,1009.27
2023-01-05T05:30:29.423Z,1009.21
2023-01-05T05:31:29.450Z,1009.29
2023-01-05T05:32:29.428Z,1009.29
2023-01-05T05:33:34.417Z,1009.38
2023-01-05T05:34:29.385Z,1009.34
2023-01-05T05:35:29.370Z,1009.31
2023-01-05T05:36:29.377Z,1009.33
2023-01-05T05:37:29.342Z,1009.30
2023-01-05T05:38:29.377Z,1009.30
2023-01-05T05:39:29.339Z,1009.36
2023-01-05T05:40:29.336Z,1009.32
2023-01-05T05:41:29.349Z,1009.33
2023-01-05T05:42:29.301Z,1009.33
2023-01-05T05:43:29.281Z,1009.33
2023-01-05T05:44:34.296Z,1009.44
2023-01-05T05:45:29.260Z,1009.43
2023-01-05T05:46:29.370Z,1009.51
2023-01-05T05:47:29.235Z,1009.51
2023-01-05T05:48:29.328Z,1009.54
2023-01-05T05:49:29.231Z,1009.53
2023-01-05T05:50:29.203Z,1009.42
2023-01-05T05:51:29.211Z,1009.46
2023-01-05T05:52:29.177Z,1009.50
2023-01-05T05:53:29.172Z,1009.50
2023-01-05T05:54:30.179Z,1009.46
2023-01-05T05:55:34.201Z,1009.45
2023-01-05T05:56:29.158Z,1009.41
2023-01-05T05:57:29.138Z,1009.43
2023-01-05T05:58:29.114Z,1009.46
2023-01-05T05:59:29.104Z,1009.44
2023-01-05T06:00:29.094Z,1009.52
2023-01-05T06:01:29.355Z,1009.57
2023-01-05T06:02:29.320Z,1009.62
2023-01-05T06:03:29.127Z,1009.58
2023-01-05T06:04:29.102Z,1009.60
2023-01-05T06:05:29.038Z,1009.64
2023-01-05T06:06:34.080Z,1009.68
2023-01-05T06:07:29.010Z,1009.71
2023-01-05T06:08:29.000Z,1009.71
2023-01-05T06:09:28.988Z,1009.66
2023-01-05T06:10:28.996Z,1009.59
2023-01-05T06:11:28.987Z,1009.65
2023-01-05T06:12:28.968Z,1009.69
2023-01-05T06:13:29.005Z,1009.70
2023-01-05T06:14:28.936Z,1009.66
2023-01-05T06:15:28.921Z,1009.73
2023-01-05T06:16:28.963Z,1009.66
2023-01-05T06:17:33.928Z,1009.65
2023-01-05T06:18:28.886Z,1009.67
2023-01-05T06:19:28.879Z,1009.72
2023-01-05T06:20:28.884Z,1009.74
2023-01-05T06:21:28.852Z,1009.67
2023-01-05T06:22:28.854Z,1009.69
2023-01-05T06:23:28.872Z,1009.67
2023-01-05T06:24:28.821Z,1009.67
2023-01-05T06:25:28.807Z,1009.65
2023-01-05T06:26:28.826Z,1009.65
2023-01-05T06:27:28.851Z,1009.71
2023-01-05T06:28:33.804Z,1009.68
2023-01-05T06:29:28.771Z,1009.64
2023-01-05T06:30:29.748Z,1009.62
2023-01-05T06:31:29.510Z,1009.52
2023-01-05T06:32:29.118Z,1009.54
2023-01-05T06:33:28.725Z,1009.46
2023-01-05T06:34:28.720Z,1009.52
2023-01-05T06:35:28.697Z,1009.54
2023-01-05T06:36:28.717Z,1009.57
2023-01-05T06:37:28.685Z,1009.57
2023-01-05T06:38:28.686Z,1009.64
2023-01-05T06:39:33.697Z,1009.65
2023-01-05T06:40:28.675Z,1009.64
2023-01-05T06:41:28.667Z,1009.62
2023-01-05T06:42:28.667Z,1009.64
2023-01-05T06:43:28.610Z,1009.64
2023-01-05T06:44:28.597Z,1009.61
2023-01-05T06:45:29.615Z,1009.59
2023-01-05T06:46:28.579Z,1009.66
2023-01-05T06:47:28.568Z,1009.67
2023-01-05T06:48:28.558Z,1009.62
2023-01-05T06:49:28.543Z,1009.64
2023-01-05T06:50:33.567Z,1009.67
2023-01-05T06:51:28.524Z,1009.67
2023-01-05T06:52:28.558Z,1009.67
2023-01-05T06:53:28.493Z,1009.67
2023-01-05T06:54:28.494Z,1009.63
2023-01-05T06:55:28.491Z,1009.63
2023-01-05T06:56:28.489Z,1009.53
2023-01-05T06:57:28.462Z,1009.61
2023-01-05T06:58:28.438Z,1009.58
2023-01-05T06:59:28.428Z,1009.62
2023-01-05T07:00:28.564Z,1009.59
2023-01-05T07:01:33.504Z,1009.56
2023-01-05T07:02:28.415Z,1009.63
2023-01-05T07:03:28.407Z,1009.68
2023-01-05T07:04:28.382Z,1009.59
2023-01-05T07:05:28.382Z,1009.62
2023-01-05T07:06:28.354Z,1009.57
2023-01-05T07:07:29.348Z,1009.57
2023-01-05T07:08:28.479Z,1009.64
2023-01-05T07:09:28.318Z,1009.60
2023-01-05T07:10:28.429Z,1009.63
2023-01-05T07:11:28.322Z,1009.61
2023-01-05T07:12:33.312Z,1009.57
2023-01-05T07:13:28.274Z,1009.57
2023-01-05T07:14:28.282Z,1009.61
2023-01-05T07:15:28.266Z,1009.61
2023-01-05T07:16:28.351Z,1009.68
2023-01-05T07:17:28.240Z,1009.56
2023-01-05T07:18:28.223Z,1009.57
2023-01-05T07:19:28.203Z,1009.58
2023-01-05T07:20:28.261Z,1009.60
2023-01-05T07:21:28.186Z,1009.68
2023-01-05T07:22:28.190Z,1009.62
2023-01-05T07:23:33.203Z,1009.68
2023-01-05T07:24:28.162Z,1009.68
2023-01-05T07:25:28.166Z,1009.74
2023-01-05T07:26:28.203Z,1009.75
2023-01-05T07:27:28.153Z,1009.68
2023-01-05T07:28:28.137Z,1009.72
2023-01-05T07:29:28.096Z,1009.75
2023-01-05T07:30:28.176Z,1009.65
2023-01-05T07:31:28.104Z,1009.74
2023-01-05T07:32:28.071Z,1009.74
2023-01-05T07:33:28.051Z,1009.77
2023-01-05T07:34:33.075Z,1009.75
2023-01-05T07:35:28.034Z,1009.73
2023-01-05T07:36:28.021Z,1009.76
2023-01-05T07:37:28.029Z,1009.82
2023-01-05T07:38:27.999Z,1009.80
2023-01-05T07:39:28.006Z,1009.80
2023-01-05T07:40:28.048Z,1009.82
2023-01-05T07:41:27.964Z,1009.85
2023-01-05T07:42:27.964Z,1009.90
2023-01-05T07:43:27.936Z,1009.87
2023-01-05T07:44:27.938Z,1009.89
2023-01-05T07:45:33.004Z,1009.95
2023-01-05T07:46:27.906Z,1009.96
2023-01-05T07:47:27.906Z,1009.98
2023-01-05T07:48:27.887Z,1010.00
2023-01-05T07:49:27.890Z,1009.95
2023-01-05T07:50:27.883Z,1010.06
2023-01-05T07:51:27.851Z,1010.01
2023-01-05T07:52:27.856Z,1010.05
2023-01-05T07:53:27.833Z,1010.04
2023-01-05T07:54:27.820Z,1010.09
2023-01-05T07:55:27.850Z,1010.03
2023-01-05T07:56:32.846Z,1010.05
2023-01-05T07:57:27.812Z,1010.03
2023-01-05T07:58:27.786Z,1010.16
2023-01-05T07:59:27.880Z,1010.12
2023-01-05T08:00:27.763Z,1010.02
2023-01-05T08:01:27.839Z,1010.08
2023-01-05T08:02:33.865Z,1010.11
2023-01-05T08:03:28.725Z,1010.20
2023-01-05T08:04:28.748Z,1010.07
2023-01-05T08:05:27.691Z,1010.16
2023-01-05T08:06:27.690Z,1010.11
2023-01-05T08:07:32.782Z,1010.10
2023-01-05T08:08:27.670Z,1010.14
2023-01-05T08:09:27.643Z,1010.07
2023-01-05T08:10:27.643Z,1010.09
2023-01-05T08:11:27.648Z,1010.17
2023-01-05T08:12:27.625Z,1010.16
2023-01-05T08:13:27.602Z,1010.20
2023-01-05T08:14:27.599Z,1010.24
2023-01-05T08:15:27.617Z,1010.26
2023-01-05T08:16:27.622Z,1010.26
2023-01-05T08:17:27.583Z,1010.23
2023-01-05T08:18:32.572Z,1010.38
2023-01-05T08:19:27.556Z,1010.42
2023-01-05T08:20:27.546Z,1010.39
2023-01-05T08:21:27.516Z,1010.38
2023-01-05T08:22:27.501Z,1010.43
2023-01-05T08:23:27.600Z,1010.37
2023-01-05T08:24:27.487Z,1010.47
2023-01-05T08:25:27.469Z,1010.45
2023-01-05T08:26:27.509Z,1010.49
2023-01-05T08:27:27.470Z,1010.43
2023-01-05T08:28:34.981Z,1010.49
2023-01-05T08:29:33.454Z,1010.53
2023-01-05T08:30:27.414Z,1010.48
2023-01-05T08:31:27.502Z,1010.50
2023-01-05T08:32:27.389Z,1010.55
2023-01-05T08:33:27.434Z,1010.50
2023-01-05T08:34:32.869Z,1010.50
2023-01-05T08:35:28.360Z,1010.53
2023-01-05T08:36:27.372Z,1010.57
2023-01-05T08:37:27.345Z,1010.53
2023-01-05T08:38:27.331Z,1010.56
2023-01-05T08:39:27.344Z,1010.60
2023-01-05T08:40:32.333Z,1010.67
2023-01-05T08:41:27.288Z,1010.68
2023-01-05T08:42:27.275Z,1010.68
2023-01-05T08:43:27.343Z,1010.66
2023-01-05T08:44:27.260Z,1010.67
2023-01-05T08:45:27.244Z,1010.72
2023-01-05T08:46:27.293Z,1010.75
2023-01-05T08:47:28.618Z,1010.69
2023-01-05T08:48:27.253Z,1010.76
2023-01-05T08:49:27.257Z,1010.73
2023-01-05T08:50:27.208Z,1010.80
2023-01-05T08:51:32.202Z,1010.77
2023-01-05T08:52:27.178Z,1010.75
2023-01-05T08:53:27.176Z,1010.74
2023-01-05T08:54:27.190Z,1010.69
2023-01-05T08:55:27.163Z,1010.78
2023-01-05T08:56:29.544Z,1010.80
2023-01-05T08:57:27.184Z,1010.75
2023-01-05T08:58:28.132Z,1010.72
2023-01-05T08:59:27.130Z,1010.79
2023-01-05T09:00:27.077Z,1010.77
2023-01-05T09:01:27.193Z,1010.72
2023-01-05T09:02:32.236Z,1010.71
2023-01-05T09:03:27.148Z,1010.70
2023-01-05T09:04:27.077Z,1010.67
2023-01-05T09:05:27.021Z,1010.71
2023-01-05T09:06:27.052Z,1010.72
2023-01-05T09:07:27.006Z,1010.76
2023-01-05T09:08:27.000Z,1010.72
2023-01-05T09:09:26.984Z,1010.69
2023-01-05T09:10:26.969Z,1010.73
2023-01-05T09:11:26.957Z,1010.75
2023-01-05T09:12:32.786Z,1010.71
2023-01-05T09:13:32.993Z,1010.66
2023-01-05T09:14:27.924Z,1010.68
2023-01-05T09:15:26.945Z,1010.72
2023-01-05T09:17:27.922Z,1010.77
2023-01-05T09:18:26.929Z,1010.73
2023-01-05T09:19:26.873Z,1010.73
2023-01-05T09:20:26.870Z,1010.79
2023-01-05T09:21:26.852Z,1010.82
2023-01-05T09:22:26.857Z,1010.76
2023-01-05T09:23:26.844Z,1010.77
2023-01-05T09:24:31.853Z,1010.83
2023-01-05T09:25:26.803Z,1010.81
2023-01-05T09:26:26.797Z,1010.88
2023-01-05T09:27:27.512Z,1010.91
2023-01-05T09:28:26.855Z,1010.84
2023-01-05T09:29:26.762Z,1010.91
2023-01-05T09:30:26.819Z,1010.83
2023-01-05T09:31:26.825Z,1010.85
2023-01-05T09:32:26.723Z,1010.97
2023-01-05T09:33:26.749Z,1010.97
2023-01-05T09:34:26.710Z,1010.99
2023-01-05T09:35:31.731Z,1010.95
2023-01-05T09:36:26.681Z,1011.00
2023-01-05T09:37:26.668Z,1011.01
2023-01-05T09:38:26.714Z,1011.09
2023-01-05T09:39:26.653Z,1011.07
2023-01-05T09:40:26.632Z,1010.97
2023-01-05T09:41:26.652Z,1011.04
2023-01-05T09:42:26.612Z,1011.07
2023-01-05T09:43:26.632Z,1011.12
2023-01-05T09:44:26.629Z,1011.04
2023-01-05T09:45:26.614Z,1011.05
2023-01-05T09:46:31.765Z,1011.06
2023-01-05T09:47:26.556Z,1011.07
2023-01-05T09:48:26.545Z,1011.05
2023-01-05T09:49:26.531Z,1011.05
2023-01-05T09:50:26.538Z,1011.10
2023-01-05T09:51:26.531Z,1011.16
2023-01-05T09:52:26.493Z,1011.11
2023-01-05T09:53:26.503Z,1011.11
2023-01-05T09:54:26.474Z,1011.11
2023-01-05T09:55:26.467Z,1011.05
2023-01-05T09:56:59.053Z,1011.10
2023-01-05T09:57:32.461Z,1011.04
2023-01-05T09:58:30.085Z,1011.07
2023-01-05T09:59:26.421Z,1011.04
2023-01-05T10:00:26.429Z,1011.09
2023-01-05T10:01:26.442Z,1011.10
2023-01-05T10:02:26.531Z,1011.03
2023-01-05T10:04:30.733Z,1011.08
2023-01-05T10:05:26.521Z,1011.04
2023-01-05T10:06:26.336Z,1011.07
2023-01-05T10:07:26.348Z,1011.07
2023-01-05T10:08:31.371Z,1011.02
2023-01-05T10:09:26.317Z,1011.04
2023-01-05T10:10:30.423Z,1011.11
2023-01-05T10:11:26.284Z,1011.03
2023-01-05T10:12:26.269Z,1011.02
2023-01-05T10:13:26.284Z,1010.96
2023-01-05T10:14:26.262Z,1010.99
2023-01-05T10:15:26.354Z,1011.01
2023-01-05T10:16:29.675Z,1011.06
2023-01-05T10:17:43.615Z,1011.06
2023-01-05T10:18:27.325Z,1011.02
2023-01-05T10:19:31.216Z,1010.98
2023-01-05T10:20:26.249Z,1010.97
2023-01-05T10:21:26.175Z,1010.97
2023-01-05T10:22:26.177Z,1011.01
2023-01-05T10:23:26.201Z,1011.03
2023-01-05T10:24:26.137Z,1010.97
2023-01-05T10:25:26.126Z,1011.01
2023-01-05T10:26:26.128Z,1010.97
2023-01-05T10:27:26.775Z,1010.91
2023-01-05T10:28:26.110Z,1010.96
2023-01-05T10:29:26.081Z,1011.01
2023-01-05T10:30:31.097Z,1010.98
2023-01-05T10:31:26.100Z,1010.92
2023-01-05T10:32:26.127Z,1010.98
2023-01-05T10:33:35.444Z,1010.97
2023-01-05T10:34:27.174Z,1010.97
2023-01-05T10:37:06.005Z,1010.99
2023-01-05T10:37:27.009Z,1010.98
2023-01-05T10:38:26.002Z,1010.98
2023-01-05T10:39:25.979Z,1010.95
2023-01-05T10:40:25.959Z,1010.94
2023-01-05T10:41:30.974Z,1010.96
2023-01-05T10:42:25.947Z,1011.01
2023-01-05T10:43:25.933Z,1011.05
2023-01-05T10:44:25.941Z,1010.98
2023-01-05T10:45:25.902Z,1011.00
2023-01-05T10:46:33.960Z,1010.98
2023-01-05T10:47:26.950Z,1010.97
2023-01-05T10:48:25.870Z,1010.95
2023-01-05T10:49:25.877Z,1011.01
2023-01-05T10:50:25.993Z,1011.06
2023-01-05T10:51:25.851Z,1011.03
2023-01-05T10:52:30.847Z,1011.03
2023-01-05T10:53:25.821Z,1011.05
2023-01-05T10:54:25.812Z,1011.01
2023-01-05T10:55:25.910Z,1011.06
2023-01-05T10:56:25.960Z,1011.01
2023-01-05T10:57:31.902Z,1011.06
2023-01-05T10:58:26.901Z,1011.07
2023-01-05T10:59:25.840Z,1011.09
2023-01-05T11:00:25.937Z,1011.05
2023-01-05T11:01:25.890Z,1011.09
2023-01-05T11:02:25.865Z,1011.08
2023-01-05T11:04:04.361Z,1011.04
2023-01-05T11:04:34.248Z,1011.09
2023-01-05T11:05:26.905Z,1011.05
2023-01-05T11:06:25.781Z,1011.03
2023-01-05T11:07:25.838Z,1011.04
2023-01-05T11:08:25.652Z,1011.02
2023-01-05T11:09:25.646Z,1011.01
2023-01-05T11:10:25.623Z,1011.03
2023-01-05T11:11:25.622Z,1011.02
2023-01-05T11:12:25.602Z,1011.01
2023-01-05T11:13:25.593Z,1011.02
2023-01-05T11:14:30.619Z,1011.07
2023-01-05T11:15:25.605Z,1011.11
2023-01-05T11:16:25.613Z,1011.03
2023-01-05T11:17:25.559Z,1011.07
2023-01-05T11:18:25.586Z,1011.04
2023-01-05T11:19:25.568Z,1011.14
2023-01-05T11:20:25.541Z,1011.13
2023-01-05T11:21:25.503Z,1011.16
2023-01-05T11:22:25.617Z,1011.14
2023-01-05T11:23:25.483Z,1011.13
2023-01-05T11:24:25.491Z,1011.14
2023-01-05T11:25:30.592Z,1011.11
2023-01-05T11:26:25.447Z,1011.16
2023-01-05T11:27:25.436Z,1011.10
2023-01-05T11:28:25.427Z,1011.17
2023-01-05T11:29:25.422Z,1011.13
2023-01-05T11:30:25.466Z,1011.16
2023-01-05T11:31:25.429Z,1011.18
2023-01-05T11:32:25.392Z,1011.21
2023-01-05T11:33:25.931Z,1011.21
2023-01-05T11:34:25.373Z,1011.28
2023-01-05T11:35:25.387Z,1011.30
2023-01-05T11:36:30.610Z,1011.29
2023-01-05T11:37:25.337Z,1011.24
2023-01-05T11:38:25.513Z,1011.21
2023-01-05T11:39:25.320Z,1011.13
2023-01-05T11:40:25.356Z,1011.14
2023-01-05T11:41:25.288Z,1011.13
2023-01-05T11:42:26.318Z,1011.16
2023-01-05T11:43:25.263Z,1011.19
2023-01-05T11:44:25.256Z,1011.18
2023-01-05T11:45:25.273Z,1011.18
2023-01-05T11:46:25.267Z,1011.17
2023-01-05T11:47:30.596Z,1011.18
2023-01-05T11:48:25.212Z,1011.16
2023-01-05T11:49:25.293Z,1011.21
2023-01-05T11:50:25.274Z,1011.18
2023-01-05T11:51:27.820Z,1011.22
2023-01-05T11:52:25.211Z,1011.22
2023-01-05T11:53:25.158Z,1011.24
2023-01-05T11:54:25.283Z,1011.17
2023-01-05T11:55:25.166Z,1011.23
2023-01-05T11:56:25.119Z,1011.22
2023-01-05T11:57:25.113Z,1011.24
2023-01-05T11:58:30.359Z,1011.22
2023-01-05T11:59:25.091Z,1011.20
2023-01-05T12:00:25.111Z,1011.21
2023-01-05T12:01:25.130Z,1011.25
2023-01-05T12:02:25.117Z,1011.22
2023-01-05T12:03:25.105Z,1011.22
2023-01-05T12:04:25.114Z,1011.24
2023-01-05T12:05:25.060Z,1011.21
2023-01-05T12:06:25.032Z,1011.24
2023-01-05T12:07:25.000Z,1011.19
2023-01-05T12:08:24.990Z,1011.22
2023-01-05T12:09:34.697Z,1011.21
2023-01-05T12:10:25.967Z,1011.17
2023-01-05T12:11:24.964Z,1011.29
2023-01-05T12:12:24.955Z,1011.24
2023-01-05T12:13:24.935Z,1011.22
2023-01-05T12:14:24.923Z,1011.21
2023-01-05T12:15:24.912Z,1011.23
2023-01-05T12:16:24.935Z,1011.22
2023-01-05T12:17:24.894Z,1011.14
2023-01-05T12:18:24.926Z,1011.18
2023-01-05T12:19:24.869Z,1011.19
2023-01-05T12:20:29.896Z,1011.19
2023-01-05T12:21:24.877Z,1011.17
2023-01-05T12:22:24.856Z,1011.24
2023-01-05T12:23:24.822Z,1011.29
2023-01-05T12:24:24.809Z,1011.35
2023-01-05T12:25:24.938Z,1011.33
2023-01-05T12:26:24.812Z,1011.27
2023-01-05T12:27:24.776Z,1011.27
2023-01-05T12:28:40.438Z,1011.36
2023-01-05T12:32:33.967Z,1011.35
2023-01-05T12:34:25.702Z,1011.37
2023-01-05T12:35:24.730Z,1011.36
2023-01-05T12:36:24.694Z,1011.37
2023-01-05T12:37:24.674Z,1011.27
2023-01-05T12:38:24.654Z,1011.28
2023-01-05T12:39:28.384Z,1011.27
2023-01-05T12:40:25.633Z,1011.25
2023-01-05T12:41:24.771Z,1011.30
2023-01-05T12:42:29.745Z,1011.27
2023-01-05T12:43:24.623Z,1011.30
2023-01-05T12:44:24.592Z,1011.32
2023-01-05T12:45:31.606Z,1011.30
2023-01-05T12:46:25.664Z,1011.28
2023-01-05T12:47:24.565Z,1011.23
2023-01-05T12:48:24.548Z,1011.28
2023-01-05T12:49:24.532Z,1011.26
2023-01-05T12:50:25.608Z,1011.24
2023-01-05T12:51:24.531Z,1011.26
2023-01-05T12:52:24.502Z,1011.35
2023-01-05T12:53:29.513Z,1011.32
2023-01-05T12:54:24.479Z,1011.30
2023-01-05T12:55:24.472Z,1011.29
2023-01-05T12:56:24.458Z,1011.25
2023-01-05T12:57:24.585Z,1011.32
2023-01-05T12:58:24.439Z,1011.29
2023-01-05T12:59:24.425Z,1011.37
2023-01-05T13:00:24.540Z,1011.38
2023-01-05T13:01:24.504Z,1011.32
2023-01-05T13:02:24.576Z,1011.28
2023-01-05T13:03:24.395Z,1011.28
2023-01-05T13:04:36.324Z,1011.35
2023-01-05T13:05:25.391Z,1011.32
2023-01-05T13:06:24.354Z,1011.35
2023-01-05T13:07:24.360Z,1011.33
2023-01-05T13:08:24.331Z,1011.35
2023-01-05T13:09:24.319Z,1011.31
2023-01-05T13:10:24.315Z,1011.38
2023-01-05T13:11:24.316Z,1011.39
2023-01-05T13:12:24.389Z,1011.35
2023-01-05T13:13:24.387Z,1011.36
2023-01-05T13:14:24.280Z,1011.33
2023-01-05T13:15:29.269Z,1011.35
2023-01-05T13:16:24.269Z,1011.31
2023-01-05T13:17:24.251Z,1011.32
2023-01-05T13:18:24.217Z,1011.42
2023-01-05T13:19:24.209Z,1011.38
2023-01-05T13:20:24.209Z,1011.43
2023-01-05T13:21:24.206Z,1011.37
2023-01-05T13:22:24.173Z,1011.38
2023-01-05T13:23:24.169Z,1011.42
2023-01-05T13:24:24.159Z,1011.45
2023-01-05T13:25:24.141Z,1011.40
2023-01-05T13:26:34.192Z,1011.40
2023-01-05T13:27:25.116Z,1011.42
2023-01-05T13:28:25.995Z,1011.39
2023-01-05T13:29:24.255Z,1011.41
2023-01-05T13:30:24.091Z,1011.38
2023-01-05T13:31:24.165Z,1011.38
2023-01-05T13:32:24.070Z,1011.38
2023-01-05T13:33:24.058Z,1011.37
2023-01-05T13:34:24.048Z,1011.35
2023-01-05T13:35:25.036Z,1011.36
2023-01-05T13:36:24.037Z,1011.36
2023-01-05T13:37:29.033Z,1011.37
2023-01-05T13:38:24.006Z,1011.41
2023-01-05T13:39:23.991Z,1011.43
2023-01-05T13:40:23.975Z,1011.43
2023-01-05T13:41:23.997Z,1011.41
2023-01-05T13:42:23.960Z,1011.43
2023-01-05T13:43:23.952Z,1011.40
2023-01-05T13:44:23.969Z,1011.49
2023-01-05T13:45:24.073Z,1011.42
2023-01-05T13:46:23.958Z,1011.47
2023-01-05T13:47:27.726Z,1011.44
2023-01-05T13:48:38.440Z,1011.43
2023-01-05T13:49:24.896Z,1011.44
2023-01-05T13:50:23.882Z,1011.43
2023-01-05T13:51:23.865Z,1011.42
2023-01-05T13:52:23.847Z,1011.42
2023-01-05T13:54:23.833Z,1011.37
2023-01-05T13:55:26.149Z,1011.42
2023-01-05T13:56:23.851Z,1011.49
2023-01-05T13:57:23.791Z,1011.41
2023-01-05T13:58:23.886Z,1011.44
2023-01-05T13:59:35.160Z,1011.48
2023-01-05T14:00:24.829Z,1011.39
2023-01-05T14:01:23.895Z,1011.44
2023-01-05T14:02:23.744Z,1011.47
2023-01-05T14:03:23.748Z,1011.43
2023-01-05T14:04:23.711Z,1011.42
2023-01-05T14:05:23.699Z,1011.34
2023-01-05T14:06:23.726Z,1011.36
2023-01-05T14:07:23.674Z,1011.39
2023-01-05T14:08:23.667Z,1011.39
2023-01-05T14:09:23.678Z,1011.38
2023-01-05T14:10:28.670Z,1011.49
2023-01-05T14:11:23.663Z,1011.46
2023-01-05T14:12:23.689Z,1011.44
2023-01-05T14:13:23.616Z,1011.51
2023-01-05T14:14:23.623Z,1011.48
2023-01-05T14:15:23.693Z,1011.47
2023-01-05T14:16:23.649Z,1011.47
2023-01-05T14:17:23.679Z,1011.47
2023-01-05T14:18:23.559Z,1011.48
2023-01-05T14:19:23.561Z,1011.44
2023-01-05T14:20:23.533Z,1011.45
2023-01-05T14:21:28.560Z,1011.46
2023-01-05T14:22:23.578Z,1011.48
2023-01-05T14:23:23.629Z,1011.54
2023-01-05T14:24:23.497Z,1011.46
2023-01-05T14:25:23.484Z,1011.49
2023-01-05T14:26:23.482Z,1011.47
2023-01-05T14:27:23.491Z,1011.51
2023-01-05T14:28:23.479Z,1011.52
2023-01-05T14:29:23.435Z,1011.54
2023-01-05T14:30:23.434Z,1011.51
2023-01-05T14:31:23.452Z,1011.53
2023-01-05T14:32:28.534Z,1011.48
2023-01-05T14:33:23.403Z,1011.43
2023-01-05T14:34:23.393Z,1011.44
2023-01-05T14:35:23.362Z,1011.51
2023-01-05T14:36:23.401Z,1011.46
2023-01-05T14:37:23.361Z,1011.60
2023-01-05T14:38:23.378Z,1011.55
2023-01-05T14:39:23.461Z,1011.57
2023-01-05T14:40:23.339Z,1011.63
2023-01-05T14:41:25.230Z,1011.64
2023-01-05T14:42:23.296Z,1011.58
2023-01-05T14:43:28.329Z,1011.63
2023-01-05T14:44:23.287Z,1011.69
2023-01-05T14:45:23.340Z,1011.55
2023-01-05T14:46:23.261Z,1011.62
2023-01-05T14:47:23.687Z,1011.66
2023-01-05T14:48:23.443Z,1011.60
2023-01-05T14:49:23.402Z,1011.65
2023-01-05T14:50:23.405Z,1011.63
2023-01-05T14:51:23.276Z,1011.62
2023-01-05T14:52:23.182Z,1011.63
2023-01-05T14:53:23.167Z,1011.63
2023-01-05T14:54:28.187Z,1011.69
2023-01-05T14:55:37.205Z,1011.70
2023-01-05T14:56:24.221Z,1011.65
2023-01-05T14:57:23.128Z,1011.75
2023-01-05T14:58:23.116Z,1011.75
2023-01-05T14:59:23.117Z,1011.75
2023-01-05T15:00:23.153Z,1011.82
2023-01-05T15:01:23.095Z,1011.78
2023-01-05T15:02:23.152Z,1011.73
2023-01-05T15:03:23.151Z,1011.77
2023-01-05T15:04:23.162Z,1011.76
2023-01-05T15:05:28.061Z,1011.74
2023-01-05T15:06:23.048Z,1011.74
2023-01-05T15:07:23.021Z,1011.80
2023-01-05T15:08:24.005Z,1011.74
2023-01-05T15:09:22.987Z,1011.74
2023-01-05T15:10:22.979Z,1011.73
2023-01-05T15:11:22.988Z,1011.73
2023-01-05T15:12:22.966Z,1011.69
2023-01-05T15:13:22.966Z,1011.72
2023-01-05T15:14:22.971Z,1011.62
2023-01-05T15:15:22.925Z,1011.62
2023-01-05T15:16:27.954Z,1011.65
2023-01-05T15:17:22.902Z,1011.66
2023-01-05T15:18:23.177Z,1011.71
2023-01-05T15:19:22.905Z,1011.71
2023-01-05T15:20:22.993Z,1011.70
2023-01-05T15:21:22.861Z,1011.72
2023-01-05T15:22:37.094Z,1011.67
2023-01-05T15:23:23.887Z,1011.71
2023-01-05T15:24:22.824Z,1011.73
2023-01-05T15:25:22.839Z,1011.74
2023-01-05T15:26:22.830Z,1011.69
2023-01-05T15:27:27.808Z,1011.70
2023-01-05T15:28:22.863Z,1011.74
2023-01-05T15:29:22.765Z,1011.76
2023-01-05T15:30:22.772Z,1011.74
2023-01-05T15:31:23.039Z,1011.76
2023-01-05T15:32:22.785Z,1011.80
2023-01-05T15:33:22.758Z,1011.78
2023-01-05T15:34:22.735Z,1011.80
2023-01-05T15:35:22.712Z,1011.81
2023-01-05T15:36:22.819Z,1011.81
2023-01-05T15:37:22.708Z,1011.76
2023-01-05T15:38:27.738Z,1011.71
2023-01-05T15:39:23.701Z,1011.70
2023-01-05T15:40:23.706Z,1011.75
2023-01-05T15:41:22.646Z,1011.74
2023-01-05T15:42:24.367Z,1011.75
2023-01-05T15:43:22.619Z,1011.75
2023-01-05T15:44:23.614Z,1011.79
2023-01-05T15:45:23.584Z,1011.69
2023-01-05T15:46:22.599Z,1011.70
2023-01-05T15:47:22.570Z,1011.73
2023-01-05T15:48:22.584Z,1011.70
2023-01-05T15:49:27.567Z,1011.71
2023-01-05T15:50:22.544Z,1011.68
2023-01-05T15:51:22.566Z,1011.69
2023-01-05T15:52:22.652Z,1011.69
2023-01-05T15:53:22.515Z,1011.69
2023-01-05T15:54:22.515Z,1011.70
2023-01-05T15:55:22.477Z,1011.70
2023-01-05T15:56:22.532Z,1011.71
2023-01-05T15:57:22.472Z,1011.70
2023-01-05T15:58:22.446Z,1011.74
2023-01-05T15:59:22.491Z,1011.71
2023-01-05T16:00:27.450Z,1011.75
2023-01-05T16:01:22.438Z,1011.80
2023-01-05T16:02:22.512Z,1011.79
2023-01-05T16:03:22.389Z,1011.74
2023-01-05T16:04:22.437Z,1011.71
2023-01-05T16:05:22.382Z,1011.76
2023-01-05T16:06:22.406Z,1011.69
2023-01-05T16:07:22.365Z,1011.73
2023-01-05T16:08:22.479Z,1011.74
2023-01-05T16:09:22.321Z,1011.76
2023-01-05T16:10:22.339Z,1011.74
2023-01-05T16:11:27.334Z,1011.72
2023-01-05T16:12:23.477Z,1011.80
2023-01-05T16:13:22.318Z,1011.66
2023-01-05T16:14:22.345Z,1011.75
2023-01-05T16:15:22.271Z,1011.69
2023-01-05T16:16:50.620Z,1011.78
2023-01-05T16:17:23.342Z,1011.72
2023-01-05T16:18:22.220Z,1011.75
2023-01-05T16:19:22.236Z,1011.80
2023-01-05T16:20:22.211Z,1011.77
2023-01-05T16:21:22.188Z,1011.77
2023-01-05T16:22:27.255Z,1011.85
2023-01-05T16:23:22.162Z,1011.76
2023-01-05T16:24:22.269Z,1011.79
2023-01-05T16:25:22.167Z,1011.76
2023-01-05T16:26:22.160Z,1011.81
2023-01-05T16:27:22.159Z,1011.79
2023-01-05T16:28:22.155Z,1011.80
2023-01-05T16:29:22.103Z,1011.76
2023-01-05T16:30:22.090Z,1011.76
2023-01-05T16:31:22.072Z,1011.75
2023-01-05T16:32:22.077Z,1011.77
2023-01-05T16:33:27.073Z,1011.79
2023-01-05T16:34:22.042Z,1011.83
2023-01-05T16:35:23.041Z,1011.81
2023-01-05T16:36:22.040Z,1011.75
2023-01-05T16:37:22.024Z,1011.81
2023-01-05T16:38:22.031Z,1011.81
2023-01-05T16:39:21.993Z,1011.85
2023-01-05T16:40:22.202Z,1011.83
2023-01-05T16:41:21.960Z,1011.80
2023-01-05T16:42:21.980Z,1011.78
2023-01-05T16:43:21.988Z,1011.89
2023-01-05T16:44:27.948Z,1011.80
2023-01-05T16:45:21.918Z,1011.86
2023-01-05T16:46:21.946Z,1011.85
2023-01-05T16:47:21.906Z,1011.88
2023-01-05T16:48:21.935Z,1011.80
2023-01-05T16:49:21.879Z,1011.91
2023-01-05T16:50:21.860Z,1011.83
2023-01-05T16:51:21.884Z,1011.84
2023-01-05T16:52:23.830Z,1011.89
2023-01-05T16:53:23.819Z,1011.84
2023-01-05T16:54:22.795Z,1011.82
2023-01-05T16:55:28.831Z,1011.84
2023-01-05T16:56:21.799Z,1011.79
2023-01-05T16:57:21.807Z,1011.89
2023-01-05T16:58:21.795Z,1011.86
2023-01-05T16:59:21.772Z,1011.85
2023-01-05T17:00:21.855Z,1011.79
2023-01-05T17:01:21.874Z,1011.77
2023-01-05T17:02:21.735Z,1011.78
2023-01-05T17:03:21.826Z,1011.75
2023-01-05T17:04:21.804Z,1011.75
2023-01-05T17:05:21.740Z,1011.73
2023-01-05T17:06:26.707Z,1011.77
2023-01-05T17:07:21.675Z,1011.79
2023-01-05T17:08:21.680Z,1011.77
2023-01-05T17:09:21.659Z,1011.76
2023-01-05T17:10:22.638Z,1011.76
2023-01-05T17:11:21.776Z,1011.77
2023-01-05T17:12:21.682Z,1011.77
2023-01-05T17:13:21.656Z,1011.75